createdAt,value
2019-01-09T00:02:10.932Z,14.43
2019-01-09T00:04:39.314Z,13.03
2019-01-09T00:07:07.670Z,14.23
2019-01-09T00:09:36.008Z,11.67
2019-01-09T00:12:04.290Z,16.47
2019-01-09T00:14:32.588Z,21.70
2019-01-09T00:17:00.877Z,11.13
2019-01-09T00:19:29.238Z,12.97
2019-01-09T00:21:57.518Z,12.93
2019-01-09T00:24:25.827Z,12.63
2019-01-09T00:26:54.171Z,11.70
2019-01-09T00:29:22.492Z,7.80
2019-01-09T00:31:50.774Z,10.73
2019-01-09T00:34:19.130Z,10.53
2019-01-09T00:36:47.566Z,13.73
2019-01-09T00:39:15.889Z,8.73
2019-01-09T00:41:44.268Z,12.87
2019-01-09T00:44:12.647Z,8.50
2019-01-09T00:46:40.940Z,10.57
2019-01-09T00:49:09.330Z,7.67
2019-01-09T00:51:37.634Z,14.00
2019-01-09T00:54:05.920Z,11.00
2019-01-09T00:56:34.232Z,10.03
2019-01-09T00:59:02.587Z,11.43
2019-01-09T01:01:30.891Z,18.67
2019-01-09T01:04:05.181Z,14.03
2019-01-09T01:06:39.597Z,15.27
2019-01-09T01:09:31.897Z,16.57
2019-01-09T01:12:18.480Z,16.80
2019-01-09T01:15:23.215Z,15.27
2019-01-09T01:18:12.717Z,19.67
2019-01-09T01:20:47.041Z,13.33
2019-01-09T01:23:21.387Z,11.87
2019-01-09T01:25:55.962Z,13.90
2019-01-09T01:28:33.309Z,15.23
2019-01-09T01:31:19.865Z,12.40
2019-01-09T01:34:24.501Z,10.30
2019-01-09T01:37:08.056Z,9.67
2019-01-09T01:39:51.585Z,9.97
2019-01-09T01:42:39.651Z,11.30
2019-01-09T01:45:29.343Z,9.60
2019-01-09T01:48:09.653Z,7.03
2019-01-09T01:50:59.642Z,8.13
2019-01-09T01:53:34.298Z,8.13
2019-01-09T01:56:08.766Z,12.80
2019-01-09T01:58:58.624Z,9.67
2019-01-09T02:01:58.507Z,11.70
2019-01-09T02:04:46.649Z,11.83
2019-01-09T02:07:23.672Z,10.20
2019-01-09T02:10:16.135Z,11.63
2019-01-09T02:12:56.638Z,13.87
2019-01-09T02:15:44.563Z,13.90
2019-01-09T02:18:18.964Z,12.40
2019-01-09T02:20:59.247Z,14.80
2019-01-09T02:23:55.794Z,16.33
2019-01-09T02:26:48.050Z,21.23
2019-01-09T02:29:22.203Z,18.43
2019-01-09T02:31:59.648Z,11.40
2019-01-09T02:34:28.013Z,14.57
2019-01-09T02:36:56.330Z,21.43
2019-01-09T02:39:24.700Z,15.97
2019-01-09T02:41:52.993Z,11.80
2019-01-09T02:44:21.378Z,11.80
2019-01-09T02:46:49.733Z,15.60
2019-01-09T02:49:18.117Z,12.20
2019-01-09T02:51:46.461Z,12.93
2019-01-09T02:54:14.807Z,12.93
2019-01-09T02:56:43.155Z,11.80
2019-01-09T02:59:11.468Z,10.57
2019-01-09T03:01:39.818Z,12.53
2019-01-09T03:04:08.257Z,9.00
2019-01-09T03:06:36.611Z,7.53
2019-01-09T03:09:05.696Z,10.20
2019-01-09T03:11:33.977Z,9.13
2019-01-09T03:14:02.282Z,7.30
2019-01-09T03:16:30.733Z,8.47
2019-01-09T03:18:59.100Z,9.90
2019-01-09T03:21:27.463Z,11.60
2019-01-09T03:23:55.770Z,8.67
2019-01-09T03:26:24.141Z,7.73
2019-01-09T03:28:52.540Z,7.17
2019-01-09T03:41:59.111Z,8.03
2019-01-09T03:44:27.569Z,5.70
2019-01-09T03:46:55.922Z,3.93
2019-01-09T03:49:24.205Z,9.37
2019-01-09T03:51:52.567Z,7.97
2019-01-09T03:54:20.854Z,7.13
2019-01-09T03:56:49.225Z,4.27
2019-01-09T03:59:17.591Z,10.80
2019-01-09T04:01:45.877Z,8.50
2019-01-09T04:04:14.162Z,4.50
2019-01-09T04:06:42.472Z,12.43
2019-01-09T04:09:10.831Z,8.47
2019-01-09T04:11:58.626Z,13.77
2019-01-09T04:14:26.904Z,10.10
2019-01-09T04:16:55.194Z,12.97
2019-01-09T04:19:23.564Z,8.43
2019-01-09T04:21:51.920Z,8.33
2019-01-09T04:24:20.283Z,12.90
2019-01-09T04:26:48.568Z,11.13
2019-01-09T04:29:16.871Z,10.83
2019-01-09T04:31:45.164Z,13.67
2019-01-09T04:34:13.552Z,13.90
2019-01-09T04:36:51.102Z,13.10
2019-01-09T04:39:11.872Z,14.57
2019-01-09T04:41:40.320Z,15.67
2019-01-09T04:44:08.653Z,13.13
2019-01-09T04:46:37.015Z,13.87
2019-01-09T04:49:05.452Z,11.00
2019-01-09T04:51:33.856Z,15.17
2019-01-09T04:54:02.134Z,12.40
2019-01-09T04:56:30.447Z,15.33
2019-01-09T04:58:58.721Z,15.70
2019-01-09T05:01:27.089Z,21.80
2019-01-09T05:03:55.536Z,14.00
2019-01-09T05:06:23.816Z,13.27
2019-01-09T05:08:52.198Z,13.57
2019-01-09T05:11:20.492Z,9.93
2019-01-09T05:13:48.919Z,14.93
2019-01-09T05:16:17.201Z,13.67
2019-01-09T05:18:45.622Z,14.17
2019-01-09T05:21:13.902Z,11.47
2019-01-09T05:23:42.265Z,11.67
2019-01-09T05:26:10.569Z,13.93
2019-01-09T05:28:38.935Z,13.13
2019-01-09T05:31:07.983Z,13.87
2019-01-09T05:33:36.419Z,19.00
2019-01-09T05:36:05.137Z,12.93
2019-01-09T05:38:33.504Z,10.60
2019-01-09T05:41:01.902Z,9.47
2019-01-09T05:43:30.254Z,12.93
2019-01-09T05:45:59.119Z,12.90
2019-01-09T05:48:27.484Z,16.70
2019-01-09T05:50:55.876Z,9.30
2019-01-09T05:53:24.463Z,13.67
2019-01-09T05:55:52.855Z,10.97
2019-01-09T05:58:23.045Z,14.93
2019-01-09T06:00:51.460Z,11.37
2019-01-09T06:03:19.922Z,21.80
2019-01-09T06:05:48.403Z,10.63
2019-01-09T06:08:16.696Z,16.77
2019-01-09T06:10:45.066Z,16.13
2019-01-09T06:13:13.623Z,14.23
2019-01-09T06:15:41.984Z,14.13
2019-01-09T06:18:10.362Z,14.00
2019-01-09T06:20:38.722Z,16.23
2019-01-09T06:23:07.040Z,22.20
2019-01-09T06:25:35.334Z,16.63
2019-01-09T06:28:03.812Z,13.50
2019-01-09T06:30:32.180Z,12.87
2019-01-09T06:33:00.481Z,11.53
2019-01-09T06:35:28.950Z,11.90
2019-01-09T06:37:57.708Z,14.30
2019-01-09T06:40:26.089Z,11.50
2019-01-09T06:42:54.556Z,10.70
2019-01-09T06:45:22.925Z,13.27
2019-01-09T06:47:51.218Z,8.50
2019-01-09T06:50:19.579Z,11.43
2019-01-09T06:52:47.880Z,13.03
2019-01-09T06:55:16.263Z,14.93
2019-01-09T06:57:44.651Z,10.87
2019-01-09T07:00:12.940Z,15.90
2019-01-09T07:02:41.242Z,18.17
2019-01-09T07:05:09.598Z,8.73
2019-01-09T07:07:37.966Z,14.33
2019-01-09T07:10:08.027Z,15.87
2019-01-09T07:12:36.498Z,12.13
2019-01-09T07:15:11.323Z,18.93
2019-01-09T07:17:36.044Z,14.57
2019-01-09T07:20:04.485Z,12.43
2019-01-09T07:22:32.852Z,5.50
2019-01-09T07:25:01.226Z,7.43
2019-01-09T07:27:29.730Z,6.37
2019-01-09T07:29:58.038Z,10.30
2019-01-09T07:32:26.315Z,8.77
2019-01-09T07:34:54.707Z,10.10
2019-01-09T07:37:23.136Z,13.53
2019-01-09T07:39:51.562Z,11.50
2019-01-09T07:42:19.967Z,9.57
2019-01-09T07:44:48.288Z,14.30
2019-01-09T07:47:16.648Z,21.67
2019-01-09T07:49:44.998Z,17.47
2019-01-09T07:52:13.441Z,15.07
2019-01-09T07:54:41.773Z,13.10
2019-01-09T07:57:10.213Z,12.60
2019-01-09T07:59:38.573Z,12.33
2019-01-09T08:02:06.979Z,10.00
2019-01-09T08:04:35.549Z,8.27
2019-01-09T08:07:03.910Z,16.10
2019-01-09T08:09:32.283Z,17.10
2019-01-09T08:12:00.683Z,16.43
2019-01-09T08:14:48.501Z,16.37
2019-01-09T08:17:16.879Z,19.80
2019-01-09T08:19:45.254Z,22.67
2019-01-09T08:22:13.683Z,27.00
2019-01-09T08:24:41.993Z,28.83
2019-01-09T08:27:10.335Z,20.33
2019-01-09T08:29:38.716Z,14.07
2019-01-09T08:32:06.992Z,15.70
2019-01-09T08:34:35.293Z,15.27
2019-01-09T08:37:03.570Z,12.70
2019-01-09T08:39:31.866Z,12.27
2019-01-09T08:42:00.518Z,13.30
2019-01-09T08:44:28.890Z,10.93
2019-01-09T08:46:57.172Z,14.23
2019-01-09T08:49:25.508Z,11.57
2019-01-09T08:51:53.850Z,18.40
2019-01-09T08:54:22.204Z,10.97
2019-01-09T08:56:50.580Z,15.30
2019-01-09T08:59:18.944Z,14.73
2019-01-09T09:01:47.310Z,14.63
2019-01-09T09:04:15.653Z,14.40
2019-01-09T09:06:43.998Z,15.17
2019-01-09T09:09:12.437Z,18.43
2019-01-09T09:11:40.760Z,12.30
2019-01-09T09:14:09.539Z,16.73
2019-01-09T09:16:37.910Z,13.03
2019-01-09T09:19:06.314Z,16.67
2019-01-09T09:21:34.648Z,10.97
2019-01-09T09:24:02.923Z,9.97
2019-01-09T09:26:31.314Z,9.87
2019-01-09T09:28:59.596Z,15.30
2019-01-09T09:31:27.960Z,13.80
2019-01-09T09:33:56.288Z,16.77
2019-01-09T09:36:24.641Z,20.23
2019-01-09T09:38:52.996Z,12.70
2019-01-09T09:41:21.343Z,17.33
2019-01-09T09:43:49.624Z,15.47
2019-01-09T09:46:17.918Z,16.20
2019-01-09T09:48:46.345Z,15.33
2019-01-09T09:51:14.655Z,17.27
2019-01-09T09:53:43.005Z,20.73
2019-01-09T09:56:11.326Z,19.67
2019-01-09T09:58:39.711Z,18.40
2019-01-09T10:01:08.075Z,10.60
2019-01-09T10:03:36.500Z,20.77
2019-01-09T10:06:04.833Z,13.53
2019-01-09T10:08:33.135Z,14.57
2019-01-09T10:11:01.545Z,15.17
2019-01-09T10:13:29.858Z,13.77
2019-01-09T10:15:58.411Z,17.33
2019-01-09T10:18:26.771Z,12.23
2019-01-09T10:20:55.126Z,17.20
2019-01-09T10:23:23.521Z,21.33
2019-01-09T10:25:51.891Z,17.23
2019-01-09T10:28:20.203Z,26.30
2019-01-09T10:30:48.511Z,12.97
2019-01-09T10:33:16.827Z,17.17
2019-01-09T10:35:45.195Z,14.70
2019-01-09T10:38:13.587Z,11.60
2019-01-09T10:40:41.967Z,11.10
2019-01-09T10:43:10.377Z,11.10
2019-01-09T10:45:38.791Z,13.40
2019-01-09T10:48:07.158Z,10.10
2019-01-09T10:50:35.591Z,12.50
2019-01-09T10:53:03.959Z,13.00
2019-01-09T10:55:32.250Z,12.17
2019-01-09T10:58:00.635Z,15.07
2019-01-09T11:00:28.975Z,16.03
2019-01-09T11:02:57.367Z,15.63
2019-01-09T11:05:25.742Z,18.83
2019-01-09T11:07:54.060Z,10.70
2019-01-09T11:10:22.450Z,16.40
2019-01-09T11:12:50.892Z,16.90
2019-01-09T11:15:19.243Z,12.90
2019-01-09T11:17:47.653Z,14.97
2019-01-09T11:20:20.695Z,13.60
2019-01-09T11:22:49.055Z,20.70
2019-01-09T11:25:23.096Z,15.43
2019-01-09T11:27:51.374Z,22.03
2019-01-09T11:30:19.871Z,18.37
2019-01-09T11:32:48.232Z,20.93
2019-01-09T11:35:18.718Z,19.50
2019-01-09T11:37:47.174Z,15.07
2019-01-09T11:40:17.259Z,15.40
2019-01-09T11:42:45.566Z,12.73
2019-01-09T11:45:16.644Z,14.33
2019-01-09T11:47:44.939Z,13.63
2019-01-09T11:50:14.624Z,13.83
2019-01-09T11:52:43.004Z,13.87
2019-01-09T11:55:12.811Z,15.33
2019-01-09T11:57:41.113Z,15.07
2019-01-09T12:00:12.720Z,11.93
2019-01-09T12:02:41.114Z,10.57
2019-01-09T12:05:28.402Z,17.17
2019-01-09T12:07:56.803Z,15.93
2019-01-09T12:10:30.242Z,12.57
2019-01-09T12:12:57.078Z,14.70
2019-01-09T12:15:29.931Z,14.17
2019-01-09T12:17:58.249Z,16.33
2019-01-09T12:20:28.429Z,11.67
2019-01-09T12:22:56.741Z,17.93
2019-01-09T12:25:25.777Z,19.07
2019-01-09T12:27:54.205Z,18.30
2019-01-09T12:30:27.342Z,15.37
2019-01-09T12:32:55.619Z,17.00
2019-01-09T12:35:23.927Z,18.20
2019-01-09T12:37:52.376Z,17.10
2019-01-09T12:40:20.873Z,23.90
2019-01-09T12:42:49.162Z,20.77
2019-01-09T12:45:17.778Z,21.23
2019-01-09T12:47:46.077Z,18.43
2019-01-09T12:50:20.122Z,17.00
2019-01-09T12:52:48.621Z,12.70
2019-01-09T12:55:16.903Z,16.03
2019-01-09T12:57:45.278Z,12.07
2019-01-09T13:00:19.411Z,14.27
2019-01-09T13:02:47.774Z,19.90
2019-01-09T13:05:16.052Z,17.17
2019-01-09T13:07:44.410Z,16.33
2019-01-09T13:10:12.952Z,16.10
2019-01-09T13:12:41.436Z,14.50
2019-01-09T13:15:10.718Z,19.97
2019-01-09T13:17:39.063Z,17.37
2019-01-09T13:20:10.102Z,12.53
2019-01-09T13:22:38.395Z,14.23
2019-01-09T13:25:08.124Z,14.90
2019-01-09T13:27:36.473Z,18.50
2019-01-09T13:30:14.020Z,10.53
2019-01-09T13:32:42.543Z,16.37
2019-01-09T13:35:10.891Z,14.80
2019-01-09T13:37:40.436Z,14.97
2019-01-09T13:40:13.525Z,14.07
2019-01-09T13:42:41.816Z,17.70
2019-01-09T13:45:12.724Z,17.47
2019-01-09T13:47:41.995Z,14.97
2019-01-09T13:50:12.928Z,18.57
2019-01-09T13:52:41.416Z,20.60
2019-01-09T13:55:11.746Z,19.47
2019-01-09T13:57:40.109Z,19.63
2019-01-09T14:00:11.820Z,19.70
2019-01-09T14:02:40.116Z,18.87
2019-01-09T14:05:09.415Z,15.30
2019-01-09T14:07:38.065Z,19.10
2019-01-09T14:10:12.261Z,16.37
2019-01-09T14:12:40.560Z,16.80
2019-01-09T14:15:12.299Z,16.67
2019-01-09T14:17:40.597Z,15.90
2019-01-09T14:20:11.088Z,25.73
2019-01-09T14:22:39.444Z,22.60
2019-01-09T14:25:10.389Z,14.57
2019-01-09T14:27:38.749Z,18.33
2019-01-09T14:30:13.341Z,20.77
2019-01-09T14:32:41.687Z,21.27
2019-01-09T14:35:10.051Z,19.80
2019-01-09T14:37:38.455Z,22.27
2019-01-09T14:40:10.169Z,18.73
2019-01-09T14:42:38.613Z,16.97
2019-01-09T14:45:09.231Z,24.43
2019-01-09T14:47:37.731Z,17.07
2019-01-09T14:50:09.441Z,13.67
2019-01-09T14:52:37.793Z,17.63
2019-01-09T14:55:07.438Z,19.80
2019-01-09T14:57:42.832Z,23.40
2019-01-09T15:00:17.182Z,17.13
2019-01-09T15:02:45.529Z,13.57
2019-01-09T15:05:13.920Z,18.40
2019-01-09T15:07:42.285Z,15.20
2019-01-09T15:10:13.931Z,18.33
2019-01-09T15:12:42.373Z,22.13
2019-01-09T15:15:13.755Z,16.17
2019-01-09T15:17:42.116Z,15.03
2019-01-09T15:20:13.508Z,20.17
2019-01-09T15:22:41.850Z,16.27
2019-01-09T15:25:11.499Z,20.57
2019-01-09T15:27:39.955Z,14.77
2019-01-09T15:30:11.916Z,18.30
2019-01-09T15:32:40.240Z,15.60
2019-01-09T15:35:10.588Z,18.70
2019-01-09T15:37:38.942Z,17.30
2019-01-09T15:40:13.363Z,11.27
2019-01-09T15:42:43.350Z,19.03
2019-01-09T15:45:13.573Z,14.27
2019-01-09T15:47:42.010Z,16.57
2019-01-09T15:50:13.787Z,14.57
2019-01-09T15:52:42.142Z,15.57
2019-01-09T15:55:12.947Z,16.43
2019-01-09T15:57:41.862Z,10.17
2019-01-09T16:00:16.251Z,15.30
2019-01-09T16:02:44.973Z,10.37
2019-01-09T16:05:13.445Z,16.37
2019-01-09T16:07:41.903Z,15.93
2019-01-09T16:10:14.754Z,15.23
2019-01-09T16:12:43.194Z,16.53
2019-01-09T16:15:14.137Z,11.17
2019-01-09T16:17:42.741Z,15.67
2019-01-09T16:22:43.820Z,18.50
2019-01-09T16:25:13.747Z,17.33
2019-01-09T16:27:42.116Z,14.23
2019-01-09T16:30:34.093Z,14.97
2019-01-09T16:33:01.065Z,12.40
2019-01-09T16:35:33.121Z,21.90
2019-01-09T16:38:01.523Z,15.80
2019-01-09T16:40:29.861Z,17.80
2019-01-09T16:42:58.243Z,18.50
2019-01-09T16:45:26.610Z,18.37
2019-01-09T16:48:06.311Z,12.87
2019-01-09T16:50:34.688Z,16.23
2019-01-09T16:53:03.049Z,25.33
2019-01-09T16:55:33.215Z,35.73
2019-01-09T16:58:01.542Z,26.30
2019-01-09T17:00:35.551Z,61.63
2019-01-09T17:03:04.065Z,38.60
2019-01-09T17:05:32.443Z,56.53
2019-01-09T17:08:00.817Z,52.20
2019-01-09T17:10:32.548Z,53.67
2019-01-09T17:12:59.329Z,65.43
2019-01-09T17:15:27.698Z,57.37
2019-01-09T17:17:56.088Z,55.20
2019-01-09T17:20:29.984Z,37.73
2019-01-09T17:22:58.342Z,23.57
2019-01-09T17:25:26.716Z,19.23
2019-01-09T17:27:55.067Z,26.90
2019-01-09T17:30:31.711Z,49.73
2019-01-09T17:33:00.073Z,52.80
2019-01-09T17:35:28.508Z,52.00
2019-01-09T17:37:56.960Z,38.77
2019-01-09T17:40:25.602Z,32.50
2019-01-09T17:42:53.968Z,29.60
2019-01-09T17:45:22.331Z,27.77
2019-01-09T17:47:50.794Z,17.40
2019-01-09T17:50:25.111Z,15.57
2019-01-09T17:52:54.011Z,16.07
2019-01-09T17:55:22.368Z,19.23
2019-01-09T17:57:50.804Z,18.77
2019-01-09T18:00:28.628Z,18.57
2019-01-09T18:02:57.012Z,15.03
2019-01-09T18:05:29.294Z,12.47
2019-01-09T18:07:57.715Z,14.00
2019-01-09T18:10:26.855Z,28.90
2019-01-09T18:12:55.616Z,23.13
2019-01-09T18:15:29.140Z,15.67
2019-01-09T18:17:57.016Z,15.33
2019-01-09T18:20:25.960Z,16.20
2019-01-09T18:23:00.805Z,45.10
2019-01-09T18:25:32.583Z,61.50
2019-01-09T18:28:01.047Z,68.33
2019-01-09T18:30:36.922Z,47.47
2019-01-09T18:33:14.736Z,27.10
2019-01-09T18:35:52.295Z,20.83
2019-01-09T18:38:24.055Z,18.53
2019-01-09T18:40:59.270Z,19.63
2019-01-09T18:43:38.065Z,17.90
2019-01-09T18:46:26.055Z,13.03
2019-01-09T18:49:06.634Z,12.83
2019-01-09T18:51:57.721Z,14.03
2019-01-09T18:54:26.154Z,19.73
2019-01-09T18:56:54.933Z,17.83
2019-01-09T18:59:23.326Z,13.80
2019-01-09T19:01:51.675Z,20.83
2019-01-09T19:04:20.041Z,22.97
2019-01-09T19:06:48.418Z,17.87
2019-01-09T19:09:16.821Z,19.17
2019-01-09T19:11:50.426Z,27.43
2019-01-09T19:14:15.216Z,41.10
2019-01-09T19:16:43.677Z,16.73
2019-01-09T19:19:12.071Z,18.53
2019-01-09T19:21:40.450Z,16.50
2019-01-09T19:24:08.823Z,13.50
2019-01-09T19:26:37.201Z,15.17
2019-01-09T19:29:05.836Z,12.17
2019-01-09T19:31:34.220Z,16.83
2019-01-09T19:34:02.586Z,15.53
2019-01-09T19:36:30.980Z,15.43
2019-01-09T19:38:59.314Z,11.83
2019-01-09T19:41:27.618Z,16.07
2019-01-09T19:43:55.896Z,19.43
2019-01-09T19:46:24.188Z,14.27
2019-01-09T19:48:52.630Z,21.07
2019-01-09T19:51:21.046Z,17.93
2019-01-09T19:53:49.414Z,16.73
2019-01-09T19:56:17.706Z,14.17
2019-01-09T19:58:46.024Z,16.73
2019-01-09T20:01:14.560Z,18.17
2019-01-09T20:03:42.865Z,17.77
2019-01-09T20:06:11.157Z,14.70
2019-01-09T20:08:39.614Z,10.97
2019-01-09T20:11:08.204Z,18.60
2019-01-09T20:13:36.591Z,16.23
2019-01-09T20:16:05.019Z,15.77
2019-01-09T20:18:33.614Z,27.00
2019-01-09T20:21:02.071Z,28.67
2019-01-09T20:23:30.410Z,25.00
2019-01-09T20:25:58.959Z,18.07
2019-01-09T20:28:27.422Z,25.47
2019-01-09T20:30:55.720Z,22.70
2019-01-09T20:33:24.228Z,26.97
2019-01-09T20:35:52.659Z,25.97
2019-01-09T20:38:21.374Z,22.07
2019-01-09T20:40:49.697Z,19.07
2019-01-09T20:43:18.044Z,17.73
2019-01-09T20:45:46.846Z,17.53
2019-01-09T20:48:15.159Z,17.70
2019-01-09T20:50:43.771Z,25.53
2019-01-09T20:53:12.311Z,19.03
2019-01-09T20:55:40.631Z,28.13
2019-01-09T20:58:09.127Z,25.73
2019-01-09T21:00:37.562Z,24.50
2019-01-09T21:03:06.095Z,18.50
2019-01-09T21:05:36.985Z,19.43
2019-01-09T21:08:05.856Z,12.10
2019-01-09T21:10:34.338Z,10.23
2019-01-09T21:13:02.661Z,17.27
2019-01-09T21:15:31.056Z,14.27
2019-01-09T21:17:59.497Z,13.93
2019-01-09T21:20:27.861Z,9.60
2019-01-09T21:22:56.439Z,14.07
2019-01-09T21:25:24.994Z,13.33
2019-01-09T21:27:53.355Z,23.87
2019-01-09T21:30:24.367Z,10.47
2019-01-09T21:32:52.776Z,16.07
2019-01-09T21:35:21.146Z,12.73
2019-01-09T21:37:49.518Z,13.80
2019-01-09T21:42:59.230Z,20.00
2019-01-09T21:45:27.547Z,15.40
2019-01-09T21:47:55.928Z,17.67
2019-01-09T21:50:24.533Z,13.20
2019-01-09T21:52:52.986Z,14.40
2019-01-09T21:55:21.460Z,11.57
2019-01-09T21:57:50.112Z,12.20
2019-01-09T22:00:23.915Z,13.80
2019-01-09T22:02:52.209Z,11.83
2019-01-09T22:05:21.102Z,12.80
2019-01-09T22:07:49.682Z,15.27
2019-01-09T22:10:26.828Z,15.63
2019-01-09T22:12:55.134Z,17.60
2019-01-09T22:15:23.411Z,14.03
2019-01-09T22:17:51.719Z,15.80
2019-01-09T22:20:20.009Z,14.50
2019-01-09T22:22:48.407Z,13.90
2019-01-09T22:25:16.707Z,16.27
2019-01-09T22:27:45.071Z,8.03
2019-01-09T22:30:24.587Z,11.97
2019-01-09T22:32:52.959Z,17.37
2019-01-09T22:35:21.239Z,13.33
2019-01-09T22:37:49.611Z,15.43
2019-01-09T22:40:21.024Z,15.13
2019-01-09T22:42:49.440Z,12.87
2019-01-09T22:45:17.789Z,14.77
2019-01-09T22:47:46.163Z,11.73
2019-01-09T22:50:19.583Z,14.43
2019-01-09T22:52:48.137Z,13.23
2019-01-09T22:55:16.506Z,18.73
2019-01-09T22:57:44.874Z,24.03
2019-01-09T23:00:46.399Z,24.60
2019-01-09T23:03:14.773Z,23.50
2019-01-09T23:05:43.431Z,16.60
2019-01-09T23:08:11.773Z,16.93
2019-01-09T23:10:40.247Z,29.10
2019-01-09T23:13:08.571Z,27.00
2019-01-09T23:15:36.917Z,21.63
2019-01-09T23:18:05.217Z,10.70
2019-01-09T23:20:33.544Z,18.90
2019-01-09T23:23:01.886Z,14.13
2019-01-09T23:25:30.263Z,13.33
2019-01-09T23:27:58.644Z,18.70
2019-01-09T23:30:27.063Z,11.17
2019-01-09T23:32:55.358Z,6.03
2019-01-09T23:35:23.646Z,10.07
2019-01-09T23:37:52.018Z,8.27
2019-01-09T23:40:20.595Z,7.37
2019-01-09T23:42:48.964Z,8.10
2019-01-09T23:45:17.269Z,11.90
2019-01-09T23:47:45.637Z,11.43
2019-01-09T23:50:13.941Z,13.47
2019-01-09T23:52:42.224Z,12.53
2019-01-09T23:55:13.212Z,8.97
2019-01-09T23:57:41.578Z,6.97
